Time;durP1;ratioP1;P1;durP2;ratioP2;P2;SDS_P1;SDS_P2;PMS_P1;PMS_P2;Temp;Humidity;BMP_temperature;BMP_pressure;BME280_temperature;BME280_humidity;BME280_pressure;Samples;Min_cycle;Max_cycle;Signal;HPM_P1;HPM_P2
2020/05/16 00:00:51;;;;;;;5.2;4.3;;;;;;;;;;;;;
2020/05/16 00:03:29;;;;;;;4.4;4;;;;;;;;;;;;;
2020/05/16 00:10:53;;;;;;;5.5;4.4;;;;;;;;;;;;;
2020/05/16 00:15:21;;;;;;;4.6;4.2;;;;;;;;;;;;;
2020/05/16 00:17:39;;;;;;;4.5;4.1;;;;;;;;;;;;;
2020/05/16 00:20:04;;;;;;;4.8;4.4;;;;;;;;;;;;;
2020/05/16 00:22:29;;;;;;;5.1;4.6;;;;;;;;;;;;;
2020/05/16 00:24:55;;;;;;;6.7;4.7;;;;;;;;;;;;;
2020/05/16 00:27:20;;;;;;;5.3;4.3;;;;;;;;;;;;;
2020/05/16 00:29:45;;;;;;;5.2;4.2;;;;;;;;;;;;;
2020/05/16 00:32:10;;;;;;;5.2;4.5;;;;;;;;;;;;;
2020/05/16 00:34:44;;;;;;;5.1;4.7;;;;;;;;;;;;;
2020/05/16 00:37:12;;;;;;;5.2;4.8;;;;;;;;;;;;;
2020/05/16 00:39:47;;;;;;;5.3;4.8;;;;;;;;;;;;;
2020/05/16 00:42:03;;;;;;;7.1;4.6;;;;;;;;;;;;;
2020/05/16 00:44:35;;;;;;;5.2;4.7;;;;;;;;;;;;;
2020/05/16 00:47:04;;;;;;;5.2;4.5;;;;;;;;;;;;;
2020/05/16 00:49:22;;;;;;;5;4.5;;;;;;;;;;;;;
2020/05/16 00:51:49;;;;;;;7.4;4.9;;;;;;;;;;;;;
2020/05/16 00:54:10;;;;;;;7;4.6;;;;;;;;;;;;;
2020/05/16 00:56:36;;;;;;;5.6;4.7;;;;;;;;;;;;;
2020/05/16 00:58:59;;;;;;;5.4;4.8;;;;;;;;;;;;;
2020/05/16 01:01:26;;;;;;;7.1;5.4;;;;;;;;;;;;;
2020/05/16 01:04:06;;;;;;;5.1;4.6;;;;;;;;;;;;;
2020/05/16 01:06:28;;;;;;;4.8;4.4;;;;;;;;;;;;;
2020/05/16 01:08:52;;;;;;;5.3;4.8;;;;;;;;;;;;;
2020/05/16 01:11:24;;;;;;;5.2;4.6;;;;;;;;;;;;;
2020/05/16 01:13:46;;;;;;;6.2;4.9;;;;;;;;;;;;;
2020/05/16 01:16:18;;;;;;;6.3;5;;;;;;;;;;;;;
2020/05/16 01:18:49;;;;;;;5.2;4.7;;;;;;;;;;;;;
2020/05/16 01:21:09;;;;;;;5.4;4.9;;;;;;;;;;;;;
2020/05/16 01:23:42;;;;;;;5.1;4.6;;;;;;;;;;;;;
2020/05/16 01:26:11;;;;;;;7.4;5.1;;;;;;;;;;;;;
2020/05/16 01:28:51;;;;;;;5.3;4.6;;;;;;;;;;;;;
2020/05/16 01:31:31;;;;;;;5.8;5;;;;;;;;;;;;;
2020/05/16 01:33:34;;;;;;;6.2;5.1;;;;;;;;;;;;;
2020/05/16 01:40:47;;;;;;;5.6;4.9;;;;;;;;;;;;;
2020/05/16 01:43:25;;;;;;;6.1;5.2;;;;;;;;;;;;;
2020/05/16 01:48:21;;;;;;;9.2;5.3;;;;;;;;;;;;;
2020/05/16 01:53:05;;;;;;;7.3;5.8;;;;;;;;;;;;;
2020/05/16 01:57:43;;;;;;;6.2;5.6;;;;;;;;;;;;;
2020/05/16 02:00:07;;;;;;;7.2;6;;;;;;;;;;;;;
2020/05/16 02:02:50;;;;;;;7.4;5.8;;;;;;;;;;;;;
2020/05/16 02:05:10;;;;;;;8.7;5.9;;;;;;;;;;;;;
2020/05/16 02:07:43;;;;;;;7.3;4.8;;;;;;;;;;;;;
2020/05/16 02:10:03;;;;;;;5.9;5.2;;;;;;;;;;;;;
2020/05/16 02:12:20;;;;;;;7.2;5.3;;;;;;;;;;;;;
2020/05/16 02:17:53;;;;;;;7.2;4.8;;;;;;;;;;;;;
2020/05/16 02:31:59;;;;;;;5.6;5;;;;;;;;;;;;;
2020/05/16 02:34:15;;;;;;;6.5;5.5;;;;;;;;;;;;;
2020/05/16 02:36:43;;;;;;;6.1;4.7;;;;;;;;;;;;;
2020/05/16 02:39:28;;;;;;;8;4.9;;;;;;;;;;;;;
2020/05/16 02:42:05;;;;;;;7.3;5.2;;;;;;;;;;;;;
2020/05/16 02:44:13;;;;;;;7;6.1;;;;;;;;;;;;;
2020/05/16 02:49:12;;;;;;;5.8;5.3;;;;;;;;;;;;;
2020/05/16 02:58:48;;;;;;;4.8;4.4;;;;;;;;;;;;;
2020/05/16 03:06:26;;;;;;;4.8;4.4;;;;;;;;;;;;;
2020/05/16 03:11:05;;;;;;;5.1;3.9;;;;;;;;;;;;;
2020/05/16 03:13:52;;;;;;;4.7;3.8;;;;;;;;;;;;;
2020/05/16 03:18:09;;;;;;;5.1;4.3;;;;;;;;;;;;;
2020/05/16 03:20:56;;;;;;;4.8;4.1;;;;;;;;;;;;;
2020/05/16 03:23:07;;;;;;;5;4.5;;;;;;;;;;;;;
2020/05/16 03:25:28;;;;;;;4.8;4.3;;;;;;;;;;;;;
2020/05/16 03:28:08;;;;;;;5.8;4.6;;;;;;;;;;;;;
2020/05/16 03:31:22;;;;;;;5.2;4.1;;;;;;;;;;;;;
2020/05/16 03:33:28;;;;;;;4.2;3.8;;;;;;;;;;;;;
2020/05/16 03:40:16;;;;;;;5.7;4.4;;;;;;;;;;;;;
2020/05/16 03:45:04;;;;;;;3.8;3.4;;;;;;;;;;;;;
2020/05/16 03:53:35;;;;;;;3.6;3.3;;;;;;;;;;;;;
2020/05/16 04:11:52;;;;;;;3.5;3.1;;;;;;;;;;;;;
2020/05/16 04:15:04;;;;;;;3.3;3;;;;;;;;;;;;;
2020/05/16 04:17:20;;;;;;;3.4;3.1;;;;;;;;;;;;;
2020/05/16 04:19:00;;;;;;;3.5;3;;;;;;;;;;;;;
2020/05/16 04:21:20;;;;;;;4.9;2.9;;;;;;;;;;;;;
2020/05/16 04:23:44;;;;;;;3.9;3.1;;;;;;;;;;;;;
2020/05/16 04:26:11;;;;;;;4;3.3;;;;;;;;;;;;;
2020/05/16 04:28:44;;;;;;;3.4;3.1;;;;;;;;;;;;;
2020/05/16 04:31:09;;;;;;;3.3;2.8;;;;;;;;;;;;;
2020/05/16 04:33:30;;;;;;;5.9;4.4;;;;;;;;;;;;;
2020/05/16 04:35:57;;;;;;;6.1;4.3;;;;;;;;;;;;;
2020/05/16 04:38:22;;;;;;;6.2;4;;;;;;;;;;;;;
2020/05/16 04:40:51;;;;;;;5.2;4.2;;;;;;;;;;;;;
2020/05/16 04:43:16;;;;;;;5.8;3.5;;;;;;;;;;;;;
2020/05/16 04:45:45;;;;;;;4.5;2.5;;;;;;;;;;;;;
2020/05/16 04:48:10;;;;;;;3;2.7;;;;;;;;;;;;;
2020/05/16 04:50:36;;;;;;;2.5;2.3;;;;;;;;;;;;;
2020/05/16 04:53:01;;;;;;;2.6;2.4;;;;;;;;;;;;;
2020/05/16 04:55:36;;;;;;;2.8;2.5;;;;;;;;;;;;;
2020/05/16 04:58:09;;;;;;;2.9;2.4;;;;;;;;;;;;;
2020/05/16 05:00:38;;;;;;;3;2.4;;;;;;;;;;;;;
2020/05/16 05:03:12;;;;;;;6.2;2.5;;;;;;;;;;;;;
2020/05/16 05:10:27;;;;;;;3.1;2.8;;;;;;;;;;;;;
2020/05/16 05:19:39;;;;;;;2.3;1.9;;;;;;;;;;;;;
2020/05/16 05:20:29;;;;;;;1.7;1.6;;;;;;;;;;;;;
2020/05/16 05:31:49;;;;;;;2;1.6;;;;;;;;;;;;;
2020/05/16 05:37:42;;;;;;;1.7;1.3;;;;;;;;;;;;;
2020/05/16 05:40:05;;;;;;;2.1;1.2;;;;;;;;;;;;;
2020/05/16 05:43:01;;;;;;;2;1.2;;;;;;;;;;;;;
2020/05/16 05:47:20;;;;;;;1.7;1.1;;;;;;;;;;;;;
2020/05/16 05:51:58;;;;;;;1.7;1.4;;;;;;;;;;;;;
2020/05/16 05:54:31;;;;;;;3.7;1.5;;;;;;;;;;;;;
2020/05/16 05:58:32;;;;;;;4.7;1.4;;;;;;;;;;;;;
2020/05/16 06:04:11;;;;;;;1.4;1.2;;;;;;;;;;;;;
2020/05/16 06:06:32;;;;;;;1.3;1.2;;;;;;;;;;;;;
2020/05/16 06:08:58;;;;;;;1.1;1;;;;;;;;;;;;;
2020/05/16 06:11:25;;;;;;;1.1;1;;;;;;;;;;;;;
2020/05/16 06:14:02;;;;;;;1.9;1.1;;;;;;;;;;;;;
2020/05/16 06:21:24;;;;;;;2.2;1;;;;;;;;;;;;;
2020/05/16 06:26:22;;;;;;;3.5;2.6;;;;;;;;;;;;;
2020/05/16 06:28:38;;;;;;;1.6;1.4;;;;;;;;;;;;;
2020/05/16 06:31:50;;;;;;;1.1;1;;;;;;;;;;;;;
2020/05/16 06:33:33;;;;;;;2.3;1.2;;;;;;;;;;;;;
2020/05/16 06:35:59;;;;;;;1.5;1.3;;;;;;;;;;;;;
2020/05/16 06:38:28;;;;;;;4;1.4;;;;;;;;;;;;;
2020/05/16 06:40:53;;;;;;;1.8;1.2;;;;;;;;;;;;;
2020/05/16 06:43:20;;;;;;;8.2;4.7;;;;;;;;;;;;;
2020/05/16 06:45:44;;;;;;;2;1.5;;;;;;;;;;;;;
2020/05/16 06:48:09;;;;;;;4.2;1.5;;;;;;;;;;;;;
2020/05/16 06:50:49;;;;;;;1.7;1;;;;;;;;;;;;;
2020/05/16 06:55:43;;;;;;;1.3;1.1;;;;;;;;;;;;;
2020/05/16 06:57:58;;;;;;;3;1;;;;;;;;;;;;;
2020/05/16 07:06:56;;;;;;;0.9;0.8;;;;;;;;;;;;;
2020/05/16 07:10:11;;;;;;;0.8;0.7;;;;;;;;;;;;;
2020/05/16 07:13:28;;;;;;;1.1;0.8;;;;;;;;;;;;;
2020/05/16 07:14:51;;;;;;;1;0.8;;;;;;;;;;;;;
2020/05/16 07:37:07;;;;;;;2.1;0.8;;;;;;;;;;;;;
2020/05/16 07:46:32;;;;;;;2.6;0.8;;;;;;;;;;;;;
2020/05/16 07:51:32;;;;;;;2.4;1;;;;;;;;;;;;;
2020/05/16 07:54:00;;;;;;;2.2;1.1;;;;;;;;;;;;;
2020/05/16 07:56:25;;;;;;;2.6;1.1;;;;;;;;;;;;;
2020/05/16 07:58:52;;;;;;;6.3;1.7;;;;;;;;;;;;;
2020/05/16 08:02:02;;;;;;;3.4;1.4;;;;;;;;;;;;;
2020/05/16 08:08:16;;;;;;;1.6;1.4;;;;;;;;;;;;;
2020/05/16 08:18:32;;;;;;;3.4;1.7;;;;;;;;;;;;;
2020/05/16 08:23:20;;;;;;;4.7;1.8;;;;;;;;;;;;;
2020/05/16 08:32:03;;;;;;;5;1.6;;;;;;;;;;;;;
2020/05/16 08:33:19;;;;;;;3.3;1.4;;;;;;;;;;;;;
2020/05/16 08:35:44;;;;;;;5;1.5;;;;;;;;;;;;;
2020/05/16 08:41:32;;;;;;;2.4;1.5;;;;;;;;;;;;;
2020/05/16 08:42:41;;;;;;;3.6;1.6;;;;;;;;;;;;;
2020/05/16 08:45:08;;;;;;;1.5;1.4;;;;;;;;;;;;;
2020/05/16 08:47:33;;;;;;;2.6;1.6;;;;;;;;;;;;;
2020/05/16 08:50:03;;;;;;;2;1.7;;;;;;;;;;;;;
2020/05/16 08:52:36;;;;;;;2.5;2;;;;;;;;;;;;;
2020/05/16 08:55:05;;;;;;;2.5;2.1;;;;;;;;;;;;;
2020/05/16 08:57:35;;;;;;;3;2;;;;;;;;;;;;;
2020/05/16 09:00:07;;;;;;;3.4;1.9;;;;;;;;;;;;;
2020/05/16 09:03:00;;;;;;;3.8;2.1;;;;;;;;;;;;;
2020/05/16 09:05:25;;;;;;;2.6;1.8;;;;;;;;;;;;;
2020/05/16 09:07:51;;;;;;;3;1.8;;;;;;;;;;;;;
2020/05/16 09:10:17;;;;;;;2.8;1.9;;;;;;;;;;;;;
2020/05/16 09:12:42;;;;;;;3.3;2.2;;;;;;;;;;;;;
2020/05/16 09:15:07;;;;;;;2.1;1.9;;;;;;;;;;;;;
2020/05/16 09:17:36;;;;;;;2.9;1.8;;;;;;;;;;;;;
2020/05/16 09:20:01;;;;;;;2.3;1.8;;;;;;;;;;;;;
2020/05/16 09:22:27;;;;;;;4.1;2;;;;;;;;;;;;;
2020/05/16 09:24:52;;;;;;;3;2;;;;;;;;;;;;;
2020/05/16 09:27:22;;;;;;;3.2;1.9;;;;;;;;;;;;;
2020/05/16 09:29:47;;;;;;;2.1;1.9;;;;;;;;;;;;;
2020/05/16 09:33:37;;;;;;;5.5;2.2;;;;;;;;;;;;;
2020/05/16 09:36:05;;;;;;;2.9;1.8;;;;;;;;;;;;;
2020/05/16 09:38:37;;;;;;;2.2;1.7;;;;;;;;;;;;;
2020/05/16 09:41:03;;;;;;;3.1;1.9;;;;;;;;;;;;;
2020/05/16 09:43:29;;;;;;;2.5;1.8;;;;;;;;;;;;;
2020/05/16 09:45:54;;;;;;;2.8;2.1;;;;;;;;;;;;;
2020/05/16 09:48:26;;;;;;;2.1;1.9;;;;;;;;;;;;;
2020/05/16 09:50:44;;;;;;;2.6;2.1;;;;;;;;;;;;;
2020/05/16 09:53:09;;;;;;;3.8;2.1;;;;;;;;;;;;;
2020/05/16 09:55:35;;;;;;;3.7;2.2;;;;;;;;;;;;;
2020/05/16 09:58:04;;;;;;;2.7;2.1;;;;;;;;;;;;;
2020/05/16 10:00:29;;;;;;;2.5;2;;;;;;;;;;;;;
2020/05/16 10:02:54;;;;;;;3.8;2.4;;;;;;;;;;;;;
2020/05/16 10:05:25;;;;;;;2.4;2;;;;;;;;;;;;;
2020/05/16 10:07:51;;;;;;;2.6;1.8;;;;;;;;;;;;;
2020/05/16 10:10:16;;;;;;;2.5;1.7;;;;;;;;;;;;;
2020/05/16 10:12:41;;;;;;;2.2;1.9;;;;;;;;;;;;;
2020/05/16 10:15:10;;;;;;;3.5;2.1;;;;;;;;;;;;;
2020/05/16 10:17:35;;;;;;;3.5;2;;;;;;;;;;;;;
2020/05/16 10:20:02;;;;;;;2.2;1.9;;;;;;;;;;;;;
2020/05/16 10:22:28;;;;;;;4.7;2.4;;;;;;;;;;;;;
2020/05/16 10:24:54;;;;;;;3;2.4;;;;;;;;;;;;;
2020/05/16 10:27:39;;;;;;;2.6;2.4;;;;;;;;;;;;;
2020/05/16 10:30:10;;;;;;;3.2;2.2;;;;;;;;;;;;;
2020/05/16 10:32:42;;;;;;;2.1;1.9;;;;;;;;;;;;;
2020/05/16 10:34:57;;;;;;;2;1.8;;;;;;;;;;;;;
2020/05/16 10:37:28;;;;;;;2.6;2.1;;;;;;;;;;;;;
2020/05/16 10:39:47;;;;;;;2.2;2;;;;;;;;;;;;;
2020/05/16 10:42:12;;;;;;;2.1;1.9;;;;;;;;;;;;;
2020/05/16 10:44:37;;;;;;;2.6;2;;;;;;;;;;;;;
2020/05/16 10:47:02;;;;;;;2.9;2.4;;;;;;;;;;;;;
2020/05/16 10:49:28;;;;;;;2.6;2.2;;;;;;;;;;;;;
2020/05/16 10:51:54;;;;;;;2.1;1.9;;;;;;;;;;;;;
2020/05/16 10:54:19;;;;;;;2;1.8;;;;;;;;;;;;;
2020/05/16 10:56:50;;;;;;;2.6;1.6;;;;;;;;;;;;;
2020/05/16 10:59:16;;;;;;;2;1.6;;;;;;;;;;;;;
2020/05/16 11:01:40;;;;;;;2;1.6;;;;;;;;;;;;;
2020/05/16 11:04:06;;;;;;;2.5;1.8;;;;;;;;;;;;;
2020/05/16 11:06:30;;;;;;;2.6;1.5;;;;;;;;;;;;;
2020/05/16 11:09:00;;;;;;;1.6;1.5;;;;;;;;;;;;;
2020/05/16 11:11:25;;;;;;;2;1.5;;;;;;;;;;;;;
2020/05/16 11:13:52;;;;;;;1.7;1.6;;;;;;;;;;;;;
2020/05/16 11:16:19;;;;;;;4.8;1.4;;;;;;;;;;;;;
2020/05/16 11:18:49;;;;;;;1.6;1.5;;;;;;;;;;;;;
2020/05/16 11:21:25;;;;;;;2.7;1.8;;;;;;;;;;;;;
2020/05/16 11:23:46;;;;;;;1.9;1.6;;;;;;;;;;;;;
2020/05/16 11:26:07;;;;;;;3;1.8;;;;;;;;;;;;;
2020/05/16 11:28:33;;;;;;;1.9;1.6;;;;;;;;;;;;;
2020/05/16 11:30:58;;;;;;;4;1.9;;;;;;;;;;;;;
2020/05/16 11:33:27;;;;;;;2.8;1.6;;;;;;;;;;;;;
